Time;durP1;ratioP1;P1;durP2;ratioP2;P2;SDS_P1;SDS_P2;PMS_P1;PMS_P2;Temp;Humidity;BMP_temperature;BMP_pressure;BME280_temperature;BME280_humidity;BME280_pressure;Samples;Min_cycle;Max_cycle;Signal;HPM_P1;HPM_P2
2022/04/06 00:01:48;;;;;;;17.80;13.33;;;9.90;99.90;;;;;;5050795;28;20259;-52
2022/04/06 00:04:16;;;;;;;17.77;13.20;;;9.90;99.90;;;;;;5051643;28;20204;-52
2022/04/06 00:06:44;;;;;;;18.87;12.90;;;9.90;99.90;;;;;;5052020;28;20624;-51
2022/04/06 00:09:19;;;;;;;16.00;12.83;;;9.90;99.90;;;;;;5051346;28;20193;-51
2022/04/06 00:11:47;;;;;;;22.23;13.23;;;9.90;99.90;;;;;;5051240;28;20229;-52
2022/04/06 00:14:15;;;;;;;20.57;14.27;;;9.90;99.90;;;;;;5052088;28;20221;-51
2022/04/06 00:16:45;;;;;;;21.10;14.73;;;9.90;99.90;;;;;;5051729;28;20207;-51
2022/04/06 00:19:13;;;;;;;22.20;15.40;;;9.90;99.90;;;;;;5051758;28;20677;-52
2022/04/06 00:21:41;;;;;;;21.13;15.67;;;9.90;99.90;;;;;;5051125;28;20248;-52
2022/04/06 00:24:09;;;;;;;21.77;16.23;;;9.80;99.90;;;;;;5051454;28;20212;-52
2022/04/06 00:26:37;;;;;;;19.57;16.00;;;9.80;99.90;;;;;;5051272;28;20205;-51
2022/04/06 00:29:06;;;;;;;22.13;17.47;;;9.80;99.90;;;;;;5051428;28;20205;-52
2022/04/06 00:31:34;;;;;;;23.43;17.07;;;9.80;99.90;;;;;;5051186;28;20237;-52
2022/04/06 00:34:04;;;;;;;24.90;17.10;;;9.80;99.90;;;;;;5050697;28;20706;-52
2022/04/06 00:36:32;;;;;;;24.87;16.00;;;9.80;99.90;;;;;;5050260;28;20261;-52
2022/04/06 00:39:00;;;;;;;23.87;16.97;;;9.80;99.90;;;;;;5051446;28;20271;-52
2022/04/06 00:41:28;;;;;;;26.73;16.17;;;9.80;99.90;;;;;;5051410;28;20229;-51
2022/04/06 00:44:13;;;;;;;22.33;16.30;;;9.80;99.90;;;;;;5050849;28;20198;-52
2022/04/06 00:46:42;;;;;;;27.53;16.60;;;9.80;99.90;;;;;;5051516;28;20201;-51
2022/04/06 00:49:14;;;;;;;23.10;16.43;;;9.80;99.90;;;;;;5051398;28;20209;-52
2022/04/06 00:51:44;;;;;;;23.47;15.27;;;9.80;99.90;;;;;;5051312;28;20233;-52
2022/04/06 00:54:15;;;;;;;24.10;15.20;;;9.80;99.90;;;;;;5051026;28;20295;-52
2022/04/06 00:56:44;;;;;;;21.70;15.40;;;9.70;99.90;;;;;;5051004;28;20235;-52
2022/04/06 00:59:13;;;;;;;21.87;14.47;;;9.70;99.90;;;;;;5051338;28;20251;-51
2022/04/06 01:01:41;;;;;;;20.03;13.63;;;9.70;99.90;;;;;;5050354;28;20275;-52
2022/04/06 01:04:11;;;;;;;20.73;13.67;;;9.70;99.90;;;;;;5051278;28;20263;-51
2022/04/06 01:06:40;;;;;;;17.57;12.43;;;9.70;99.90;;;;;;5050917;28;20618;-52
2022/04/06 01:09:08;;;;;;;15.77;10.73;;;9.60;99.90;;;;;;5049969;28;20207;-52
2022/04/06 01:11:36;;;;;;;19.13;10.53;;;9.60;99.90;;;;;;5050676;28;20230;-52
2022/04/06 01:14:06;;;;;;;17.30;10.87;;;9.60;99.90;;;;;;5049328;28;20223;-52
2022/04/06 01:16:34;;;;;;;17.03;11.23;;;9.60;99.90;;;;;;5041483;28;20201;-51
2022/04/06 01:19:02;;;;;;;16.60;9.83;;;9.60;99.90;;;;;;5031066;28;20210;-52
2022/04/06 01:21:32;;;;;;;18.87;9.60;;;9.60;99.90;;;;;;5030730;28;20234;-51
2022/04/06 01:24:01;;;;;;;16.90;9.83;;;9.60;99.90;;;;;;5030371;28;20747;-51
2022/04/06 01:26:29;;;;;;;18.40;10.50;;;9.60;99.90;;;;;;5030958;28;20211;-52
2022/04/06 01:28:57;;;;;;;20.00;10.33;;;9.50;99.90;;;;;;5030847;28;20206;-52
2022/04/06 01:31:25;;;;;;;16.70;8.40;;;9.40;99.90;;;;;;5030433;28;20285;-52
2022/04/06 01:33:54;;;;;;;14.87;8.70;;;9.50;99.90;;;;;;5030551;28;20301;-52
2022/04/06 01:36:22;;;;;;;16.67;8.50;;;9.50;99.90;;;;;;5029652;28;20252;-52
2022/04/06 01:38:50;;;;;;;11.67;8.63;;;9.40;99.90;;;;;;5036271;28;20209;-52
2022/04/06 01:41:19;;;;;;;17.17;8.60;;;9.50;99.90;;;;;;5050307;28;20279;-52
2022/04/06 01:43:47;;;;;;;15.30;8.47;;;9.50;99.90;;;;;;5050314;28;20725;-52
2022/04/06 01:46:15;;;;;;;17.37;7.80;;;9.50;99.90;;;;;;5049972;28;20695;-52
2022/04/06 01:54:12;;;;;;;14.30;8.53;;;9.40;99.90;;;;;;5050094;28;20217;-52
2022/04/06 01:56:41;;;;;;;13.93;8.43;;;9.40;99.90;;;;;;5050862;28;20212;-52
2022/04/06 01:59:09;;;;;;;17.40;8.47;;;9.40;99.90;;;;;;5050322;28;20259;-52
2022/04/06 02:01:37;;;;;;;13.90;8.20;;;9.30;99.90;;;;;;5050248;28;20276;-52
2022/04/06 02:04:13;;;;;;;16.47;8.00;;;9.40;99.90;;;;;;5050057;28;20204;-52
2022/04/06 02:06:42;;;;;;;23.17;8.50;;;9.40;99.90;;;;;;5050245;28;20673;-52
2022/04/06 02:09:15;;;;;;;15.67;7.43;;;9.40;99.90;;;;;;5050097;28;20205;-52
2022/04/06 02:11:45;;;;;;;16.13;7.97;;;9.30;99.90;;;;;;5050222;28;20233;-52
2022/04/06 02:14:13;;;;;;;15.90;8.27;;;9.40;99.90;;;;;;5050206;28;20694;-52
2022/04/06 02:16:43;;;;;;;15.07;7.43;;;9.30;99.90;;;;;;5040484;28;20256;-52
2022/04/06 02:19:11;;;;;;;16.50;8.07;;;9.40;99.90;;;;;;5030614;28;20244;-52
2022/04/06 02:21:39;;;;;;;16.90;7.97;;;9.40;99.90;;;;;;5033469;28;20261;-53
2022/04/06 02:24:08;;;;;;;15.77;8.17;;;9.30;99.90;;;;;;5033671;28;20667;-52
2022/04/06 02:26:36;;;;;;;17.07;8.10;;;9.30;99.90;;;;;;5033647;28;20257;-52
2022/04/06 02:29:05;;;;;;;20.63;8.23;;;9.30;99.90;;;;;;5033947;28;20242;-52
2022/04/06 02:31:34;;;;;;;18.40;8.40;;;9.40;99.90;;;;;;5033419;28;20711;-52
2022/04/06 02:34:02;;;;;;;15.90;7.97;;;9.40;99.90;;;;;;5033053;28;20260;-52
2022/04/06 02:36:42;;;;;;;16.13;7.50;;;9.30;99.90;;;;;;5032681;28;20210;-52
2022/04/06 02:39:12;;;;;;;12.53;7.57;;;9.40;99.90;;;;;;5033343;28;20258;-52
2022/04/06 02:41:40;;;;;;;17.83;8.70;;;9.40;99.90;;;;;;5033634;28;20257;-52
2022/04/06 02:44:09;;;;;;;18.60;8.53;;;9.40;99.90;;;;;;5032988;28;20214;-52
2022/04/06 02:46:37;;;;;;;19.47;8.07;;;9.30;99.90;;;;;;5033509;28;20694;-52
2022/04/06 02:49:06;;;;;;;18.43;8.03;;;9.30;99.90;;;;;;5033784;28;20272;-52
2022/04/06 02:51:34;;;;;;;16.60;7.90;;;9.30;99.90;;;;;;5033623;28;20233;-51
2022/04/06 02:54:02;;;;;;;23.70;8.77;;;9.40;99.90;;;;;;5033213;28;20268;-53
2022/04/06 02:56:31;;;;;;;18.13;9.20;;;9.30;99.90;;;;;;5033075;28;20301;-52
2022/04/06 02:59:00;;;;;;;17.83;8.80;;;9.40;99.90;;;;;;5035008;28;20208;-52
2022/04/06 03:01:30;;;;;;;17.17;7.73;;;9.40;99.90;;;;;;5052802;28;20860;-51
2022/04/06 03:03:58;;;;;;;17.70;8.33;;;9.30;99.90;;;;;;5052693;28;20683;-52
2022/04/06 03:06:26;;;;;;;14.07;8.27;;;9.40;99.90;;;;;;5052892;28;20201;-52
2022/04/06 03:08:55;;;;;;;20.77;9.20;;;9.40;99.90;;;;;;5052936;28;20202;-52
2022/04/06 03:11:23;;;;;;;20.33;8.93;;;9.40;99.90;;;;;;5053122;28;20228;-52
2022/04/06 03:13:51;;;;;;;14.70;8.47;;;9.40;99.90;;;;;;5052113;28;20214;-52
2022/04/06 03:16:20;;;;;;;17.43;8.27;;;9.30;99.90;;;;;;5053024;28;20291;-52
2022/04/06 03:18:49;;;;;;;17.60;8.23;;;9.30;99.90;;;;;;5052921;28;20690;-51
2022/04/06 03:21:17;;;;;;;16.00;8.17;;;9.30;99.90;;;;;;5053056;28;20229;-52
2022/04/06 03:23:45;;;;;;;15.83;8.63;;;9.30;99.90;;;;;;5051763;28;20240;-52
2022/04/06 03:26:14;;;;;;;19.00;8.60;;;9.30;99.90;;;;;;5052800;28;20667;-52
2022/04/06 03:28:43;;;;;;;18.07;8.27;;;9.30;99.90;;;;;;5052882;28;20202;-52
2022/04/06 03:31:11;;;;;;;19.87;7.97;;;9.30;99.90;;;;;;5051421;28;20294;-52
2022/04/06 03:33:39;;;;;;;19.43;8.70;;;9.30;99.90;;;;;;5051998;28;20642;-52
2022/04/06 03:36:09;;;;;;;13.47;7.63;;;9.30;99.90;;;;;;5050445;28;20760;-52
2022/04/06 03:38:38;;;;;;;19.80;7.70;;;9.30;99.90;;;;;;5052282;28;20204;-52
2022/04/06 03:41:06;;;;;;;16.67;7.97;;;9.30;99.90;;;;;;5052538;28;20233;-51
2022/04/06 03:43:34;;;;;;;13.37;7.30;;;9.30;99.90;;;;;;5051694;28;20206;-51
2022/04/06 03:46:02;;;;;;;16.10;7.80;;;9.30;99.90;;;;;;5052193;28;20247;-51
2022/04/06 03:48:30;;;;;;;16.93;7.60;;;9.20;99.90;;;;;;5052253;28;20589;-52
2022/04/06 03:50:58;;;;;;;13.23;6.73;;;9.30;99.90;;;;;;5052533;28;20283;-52
2022/04/06 03:53:28;;;;;;;13.03;7.77;;;9.30;99.90;;;;;;5051792;28;20204;-51
2022/04/06 03:55:56;;;;;;;19.07;7.27;;;9.20;99.90;;;;;;5052191;28;20221;-51
2022/04/06 03:58:24;;;;;;;14.20;7.20;;;9.20;99.90;;;;;;5051818;28;20205;-51
2022/04/06 04:00:52;;;;;;;15.43;7.10;;;9.20;99.90;;;;;;5051827;28;20301;-52
2022/04/06 04:03:20;;;;;;;16.23;7.60;;;9.20;99.90;;;;;;5051474;28;20202;-52
2022/04/06 04:05:49;;;;;;;15.43;7.00;;;9.20;99.90;;;;;;5052269;28;20204;-51
2022/04/06 04:08:17;;;;;;;12.33;6.53;;;9.20;99.90;;;;;;5052080;28;20206;-52
2022/04/06 04:10:47;;;;;;;16.53;7.27;;;9.30;99.90;;;;;;5051532;28;20279;-51
2022/04/06 04:13:15;;;;;;;15.53;6.90;;;9.20;99.90;;;;;;5051062;28;20204;-52
2022/04/06 04:15:43;;;;;;;13.87;6.33;;;9.10;99.90;;;;;;5051471;28;20228;-52
2022/04/06 04:18:12;;;;;;;8.93;6.47;;;9.10;99.90;;;;;;5051934;28;20206;-52
2022/04/06 04:20:41;;;;;;;12.50;6.10;;;9.20;99.90;;;;;;5051348;28;20226;-51
2022/04/06 04:23:09;;;;;;;12.20;6.27;;;9.10;99.90;;;;;;5042334;28;20209;-51
2022/04/06 04:25:38;;;;;;;16.07;6.63;;;9.20;99.90;;;;;;5031529;28;20203;-51
2022/04/06 04:28:08;;;;;;;10.97;5.70;;;9.20;99.90;;;;;;5031667;28;20256;-52
2022/04/06 04:30:36;;;;;;;12.37;6.10;;;9.20;99.90;;;;;;5031900;28;20237;-52
2022/04/06 04:33:04;;;;;;;11.70;6.20;;;9.20;99.90;;;;;;5031196;28;20217;-52
2022/04/06 04:35:32;;;;;;;13.47;6.63;;;9.10;99.90;;;;;;5031466;28;20279;-51
2022/04/06 04:38:00;;;;;;;11.63;5.90;;;9.20;99.90;;;;;;5031567;28;20240;-52
2022/04/06 04:40:29;;;;;;;11.50;6.00;;;9.10;99.90;;;;;;5050493;28;20229;-52
2022/04/06 04:42:59;;;;;;;12.07;6.20;;;9.20;99.90;;;;;;5050306;28;20205;-52
2022/04/06 04:45:32;;;;;;;13.10;6.43;;;9.20;99.90;;;;;;5051191;28;20296;-51
2022/04/06 04:48:00;;;;;;;14.47;6.20;;;9.20;99.90;;;;;;5051216;28;20214;-52
2022/04/06 04:50:28;;;;;;;12.67;5.83;;;9.20;99.90;;;;;;5050928;28;20706;-51
2022/04/06 04:52:57;;;;;;;12.67;5.83;;;9.20;99.90;;;;;;5050894;28;20206;-51
2022/04/06 04:55:25;;;;;;;11.97;6.40;;;9.20;99.90;;;;;;5051018;28;20210;-51
2022/04/06 04:57:53;;;;;;;16.23;6.40;;;9.20;99.90;;;;;;5051495;28;20267;-51
2022/04/06 05:00:21;;;;;;;11.67;5.83;;;9.10;99.90;;;;;;5050174;28;20217;-50
2022/04/06 05:02:56;;;;;;;12.97;6.10;;;9.10;99.90;;;;;;5050525;28;20225;-52
2022/04/06 05:05:24;;;;;;;12.80;5.67;;;9.10;99.90;;;;;;5050719;28;20209;-52
2022/04/06 05:07:53;;;;;;;13.73;5.97;;;9.10;99.90;;;;;;5051169;28;20720;-52
2022/04/06 05:10:21;;;;;;;17.27;6.30;;;9.10;99.90;;;;;;5050591;28;20221;-52
2022/04/06 05:12:49;;;;;;;10.37;5.60;;;9.20;99.90;;;;;;5050393;28;20225;-52
2022/04/06 05:15:17;;;;;;;12.53;6.03;;;9.20;99.90;;;;;;5050786;28;20234;-52
2022/04/06 05:17:45;;;;;;;12.97;5.53;;;9.20;99.90;;;;;;5050328;28;20763;-52
2022/04/06 05:20:15;;;;;;;13.40;6.10;;;9.20;99.90;;;;;;5050957;28;20237;-52
2022/04/06 05:22:43;;;;;;;10.23;5.57;;;9.20;99.90;;;;;;5050361;28;20266;-51
2022/04/06 05:25:12;;;;;;;10.87;5.63;;;9.20;99.90;;;;;;5050941;28;20256;-51
2022/04/06 05:27:47;;;;;;;9.80;5.43;;;9.20;99.90;;;;;;5050709;28;20267;-51
2022/04/06 05:30:16;;;;;;;10.97;5.47;;;9.20;99.90;;;;;;5050281;28;20229;-52
2022/04/06 05:32:46;;;;;;;11.87;5.87;;;9.20;99.90;;;;;;5050105;28;20243;-52
2022/04/06 05:35:16;;;;;;;9.63;5.30;;;9.20;99.90;;;;;;5043840;28;20214;-52
2022/04/06 05:37:45;;;;;;;9.53;5.60;;;9.20;99.90;;;;;;5030598;28;20245;-52
2022/04/06 05:40:15;;;;;;;10.60;5.77;;;9.20;99.90;;;;;;5036964;28;20230;-51
2022/04/06 05:42:43;;;;;;;15.20;5.57;;;9.20;99.90;;;;;;5030107;28;20210;-52
2022/04/06 05:45:12;;;;;;;9.63;5.30;;;9.20;99.90;;;;;;5029667;28;20725;-52
2022/04/06 05:47:41;;;;;;;8.90;5.17;;;9.20;99.90;;;;;;5029853;28;20622;-52
2022/04/06 05:50:11;;;;;;;13.17;5.63;;;9.20;99.90;;;;;;5030592;28;20591;-52
2022/04/06 05:52:40;;;;;;;9.50;5.13;;;9.20;99.90;;;;;;5032598;28;20563;-51
2022/04/06 05:55:10;;;;;;;8.53;4.63;;;9.30;99.90;;;;;;5052146;28;20217;-52
2022/04/06 05:57:38;;;;;;;10.80;4.70;;;9.30;99.90;;;;;;5052958;28;20278;-51
2022/04/06 06:00:08;;;;;;;8.40;4.77;;;9.40;99.90;;;;;;5048757;28;20234;-52
2022/04/06 06:02:36;;;;;;;8.93;4.27;;;9.30;99.90;;;;;;5053580;28;20649;-51
2022/04/06 06:05:05;;;;;;;6.70;4.43;;;9.30;99.90;;;;;;5052585;28;20576;-52
2022/04/06 06:07:33;;;;;;;12.40;4.67;;;9.30;99.90;;;;;;5034060;28;20198;-52
2022/04/06 06:10:03;;;;;;;10.80;4.90;;;9.40;99.90;;;;;;5050656;28;20226;-51
2022/04/06 06:12:32;;;;;;;8.37;4.80;;;9.40;99.90;;;;;;5053821;28;20295;-52
2022/04/06 06:15:00;;;;;;;12.40;5.50;;;9.40;99.90;;;;;;5053618;28;20605;-52
2022/04/06 06:17:28;;;;;;;9.90;4.00;;;9.40;99.90;;;;;;5053648;28;20225;-51
2022/04/06 06:19:56;;;;;;;8.60;4.40;;;9.50;99.90;;;;;;5054024;28;20641;-51
2022/04/06 06:22:24;;;;;;;7.57;4.10;;;9.50;99.90;;;;;;5052996;28;20209;-51
2022/04/06 06:24:52;;;;;;;7.23;3.70;;;9.50;99.90;;;;;;5053650;28;20565;-51
2022/04/06 06:27:23;;;;;;;8.10;3.90;;;9.50;99.90;;;;;;5053534;28;20207;-52
2022/04/06 06:29:51;;;;;;;9.10;3.83;;;9.50;99.90;;;;;;5053850;28;20597;-52
2022/04/06 06:32:19;;;;;;;6.17;4.07;;;9.50;99.90;;;;;;5052795;28;20213;-52
2022/04/06 06:34:47;;;;;;;8.43;3.80;;;9.40;99.90;;;;;;5053774;28;20209;-52
2022/04/06 06:37:15;;;;;;;8.23;4.17;;;9.30;99.90;;;;;;5053459;28;20229;-52
2022/04/06 06:39:43;;;;;;;6.50;3.90;;;9.30;99.90;;;;;;5053080;28;20877;-50
2022/04/06 06:42:12;;;;;;;6.07;3.50;;;9.30;99.90;;;;;;5053266;28;20205;-52
2022/04/06 06:44:41;;;;;;;5.37;3.40;;;9.30;99.90;;;;;;5053130;28;20264;-51
2022/04/06 06:47:09;;;;;;;6.03;3.50;;;9.30;99.90;;;;;;5053511;28;20205;-52
2022/04/06 06:49:40;;;;;;;6.83;3.40;;;9.30;99.90;;;;;;5052939;28;20219;-50
2022/04/06 06:52:08;;;;;;;6.43;3.50;;;9.30;99.90;;;;;;5053030;28;20213;-51
2022/04/06 06:54:37;;;;;;;5.50;3.57;;;9.30;99.90;;;;;;5053083;28;20244;-51
2022/04/06 06:57:05;;;;;;;5.83;3.07;;;9.30;99.90;;;;;;5053118;28;20221;-52
2022/04/06 06:59:33;;;;;;;7.00;3.47;;;9.30;99.90;;;;;;5047743;28;20260;-51
2022/04/06 07:02:03;;;;;;;6.10;3.53;;;9.30;99.90;;;;;;5046504;28;20211;-52
2022/04/06 07:04:31;;;;;;;10.73;3.87;;;9.30;99.90;;;;;;5044005;28;20206;-52
2022/04/06 07:06:59;;;;;;;7.57;3.50;;;9.40;99.90;;;;;;5032871;28;20244;-51
2022/04/06 07:09:27;;;;;;;9.80;3.40;;;9.30;99.90;;;;;;5045315;28;20206;-53
2022/04/06 07:11:55;;;;;;;5.57;3.43;;;9.40;99.90;;;;;;5041848;28;20283;-52
2022/04/06 07:14:23;;;;;;;10.13;3.43;;;9.40;99.90;;;;;;5032754;28;20257;-52
2022/04/06 07:16:51;;;;;;;7.43;3.30;;;9.40;99.90;;;;;;5033243;28;20230;-51
2022/04/06 07:19:21;;;;;;;7.90;3.10;;;9.40;99.90;;;;;;5032726;28;20767;-52
2022/04/06 07:21:50;;;;;;;7.23;3.57;;;9.40;99.90;;;;;;5031840;28;20226;-51
2022/04/06 07:24:18;;;;;;;9.30;3.33;;;9.50;99.90;;;;;;5032867;28;20210;-51
2022/04/06 07:26:46;;;;;;;5.83;3.10;;;9.50;99.90;;;;;;5032778;28;20256;-51
2022/04/06 07:29:15;;;;;;;6.17;3.33;;;9.50;99.90;;;;;;5032673;28;20240;-52
2022/04/06 07:31:43;;;;;;;7.23;3.20;;;9.60;99.90;;;;;;5032030;28;20234;-51
2022/04/06 07:34:12;;;;;;;11.17;3.50;;;9.70;99.90;;;;;;5032928;28;20206;-51
2022/04/06 07:36:42;;;;;;;6.53;3.20;;;9.70;99.90;;;;;;5032555;28;20245;-51
2022/04/06 07:39:10;;;;;;;7.67;2.80;;;9.80;99.90;;;;;;5052670;28;20896;-52
2022/04/06 07:41:38;;;;;;;6.33;3.37;;;9.80;99.90;;;;;;5052215;28;20962;-51
2022/04/06 07:44:07;;;;;;;5.73;2.93;;;9.80;99.90;;;;;;5052495;28;20220;-51
2022/04/06 07:46:36;;;;;;;7.37;2.80;;;9.70;99.90;;;;;;5052598;28;20208;-52
2022/04/06 07:49:06;;;;;;;6.47;3.20;;;9.80;99.90;;;;;;5051860;28;20725;-52
2022/04/06 07:51:36;;;;;;;6.50;3.50;;;9.90;99.90;;;;;;5052021;28;20777;-51
2022/04/06 07:54:06;;;;;;;8.13;3.37;;;10.00;99.90;;;;;;5051882;28;20586;-52
2022/04/06 07:56:34;;;;;;;4.80;2.60;;;10.10;99.90;;;;;;5046463;28;20210;-51
2022/04/06 07:59:02;;;;;;;5.77;2.90;;;10.20;99.90;;;;;;5052163;28;20225;-51
2022/04/06 08:01:33;;;;;;;4.63;3.00;;;10.30;99.90;;;;;;5051521;28;20265;-51
2022/04/06 08:04:01;;;;;;;7.70;3.07;;;10.10;99.90;;;;;;5051205;28;20205;-52
2022/04/06 08:06:29;;;;;;;6.27;3.30;;;10.20;99.90;;;;;;5050525;28;20217;-51
2022/04/06 08:08:59;;;;;;;8.03;2.90;;;10.20;99.90;;;;;;5052414;28;20271;-51
2022/04/06 08:11:28;;;;;;;4.90;3.20;;;10.20;99.90;;;;;;5052513;28;20229;-51
2022/04/06 08:13:56;;;;;;;7.57;3.07;;;10.10;99.90;;;;;;5051913;28;20268;-51
2022/04/06 08:16:24;;;;;;;7.73;3.20;;;10.20;99.90;;;;;;5052549;28;20214;-50
2022/04/06 08:18:52;;;;;;;5.97;3.03;;;10.20;99.90;;;;;;5051926;28;20313;-51
2022/04/06 08:21:21;;;;;;;6.53;3.20;;;10.20;99.90;;;;;;5051871;28;20283;-51
2022/04/06 08:23:49;;;;;;;8.80;3.07;;;10.10;99.90;;;;;;5051769;28;20696;-51
2022/04/06 08:26:17;;;;;;;6.00;2.87;;;10.10;99.90;;;;;;5052091;28;20213;-51
2022/04/06 08:28:47;;;;;;;6.23;3.80;;;10.20;99.90;;;;;;5052075;28;20547;-51
2022/04/06 08:31:15;;;;;;;6.00;2.93;;;10.20;99.90;;;;;;5051715;28;20233;-51
2022/04/06 08:33:43;;;;;;;7.30;3.00;;;10.20;99.90;;;;;;5051563;28;20699;-51
2022/04/06 08:36:12;;;;;;;4.73;2.97;;;10.20;99.90;;;;;;5052130;28;20206;-51
2022/04/06 08:38:40;;;;;;;4.03;2.87;;;10.20;99.90;;;;;;5047378;28;20230;-51
2022/04/06 08:41:08;;;;;;;6.23;2.80;;;10.30;99.90;;;;;;5032197;28;20323;-50
2022/04/06 08:43:37;;;;;;;5.67;2.73;;;10.40;99.90;;;;;;5031538;28;20264;-51
2022/04/06 08:46:06;;;;;;;4.00;2.70;;;10.50;99.90;;;;;;5032209;28;20333;-51
2022/04/06 08:48:37;;;;;;;6.13;2.80;;;10.60;99.90;;;;;;5031990;28;20582;-51
2022/04/06 08:51:09;;;;;;;7.40;3.00;;;10.60;99.90;;;;;;5031860;28;20284;-51
2022/04/06 08:53:42;;;;;;;5.83;3.17;;;10.50;99.90;;;;;;5031321;28;20190;-51
2022/04/06 08:56:12;;;;;;;6.50;2.70;;;10.60;99.90;;;;;;5031543;28;20622;-51
2022/04/06 08:58:40;;;;;;;8.47;3.30;;;10.70;99.90;;;;;;5031435;28;20226;-51
2022/04/06 09:01:10;;;;;;;7.33;3.17;;;10.60;99.90;;;;;;5051577;28;20424;-51
2022/04/06 09:03:38;;;;;;;4.33;2.53;;;10.60;99.90;;;;;;5050538;28;20296;-51
2022/04/06 09:06:08;;;;;;;5.47;2.97;;;10.70;99.90;;;;;;5050714;28;20252;-51
2022/04/06 09:08:40;;;;;;;9.30;3.60;;;10.80;99.90;;;;;;5051473;28;20202;-51
2022/04/06 09:11:10;;;;;;;4.20;2.70;;;11.00;99.90;;;;;;5051093;28;20839;-51
2022/04/06 09:13:39;;;;;;;3.60;2.27;;;11.10;99.90;;;;;;5051191;28;20209;-51
2022/04/06 09:16:10;;;;;;;5.07;2.60;;;11.20;99.90;;;;;;5051141;28;20760;-51
2022/04/06 09:18:42;;;;;;;5.33;2.17;;;11.20;99.90;;;;;;5051110;28;20769;-50
2022/04/06 09:21:12;;;;;;;6.03;2.70;;;11.20;99.90;;;;;;5051053;28;20644;-51
2022/04/06 09:23:41;;;;;;;7.13;2.50;;;11.20;99.90;;;;;;5050336;28;20670;-51
2022/04/06 09:26:12;;;;;;;3.33;2.13;;;11.20;99.90;;;;;;5051235;28;20255;-51
2022/04/06 09:28:42;;;;;;;5.80;2.40;;;11.10;99.90;;;;;;5050961;28;20243;-51
2022/04/06 09:31:15;;;;;;;4.07;2.13;;;11.10;99.90;;;;;;5054414;28;20229;-51
2022/04/06 09:33:55;;;;;;;4.53;2.03;;;11.20;99.90;;;;;;5054548;28;20300;-51
2022/04/06 09:36:23;;;;;;;4.57;2.40;;;11.00;99.90;;;;;;5055196;28;20235;-50
2022/04/06 09:38:52;;;;;;;5.67;2.20;;;10.90;99.90;;;;;;5055165;28;20271;-51
2022/04/06 09:41:20;;;;;;;4.63;2.13;;;11.00;99.90;;;;;;5054729;28;20259;-51
2022/04/06 09:43:51;;;;;;;3.23;2.00;;;11.10;99.90;;;;;;5054385;28;20279;-51
2022/04/06 09:49:10;;;;;;;9.47;2.70;;;11.00;99.90;;;;;;5054732;28;20221;-51
2022/04/06 09:51:40;;;;;;;6.27;2.20;;;11.00;99.90;;;;;;5054886;28;20364;-51
2022/04/06 09:54:12;;;;;;;4.60;2.00;;;10.90;99.90;;;;;;5054585;28;20624;-51
2022/04/06 09:56:41;;;;;;;5.73;2.30;;;10.80;99.90;;;;;;5054525;28;20216;-51
2022/04/06 09:59:10;;;;;;;4.90;2.20;;;10.80;99.90;;;;;;5054522;28;20263;-51
2022/04/06 10:01:42;;;;;;;6.30;2.37;;;10.90;99.90;;;;;;5054382;28;20259;-51
2022/04/06 10:04:12;;;;;;;5.27;2.00;;;10.90;99.90;;;;;;5054705;28;20212;-51
2022/04/06 10:06:42;;;;;;;4.43;2.30;;;11.00;99.90;;;;;;5053060;28;20666;-51
2022/04/06 10:09:14;;;;;;;5.93;2.47;;;11.10;99.90;;;;;;5053662;28;20316;-51
2022/04/06 10:11:43;;;;;;;5.85;2.45;;;11.10;99.90;;;;;;5054267;28;20796;-51
2022/04/06 10:14:12;;;;;;;5.97;2.63;;;11.20;99.90;;;;;;5054268;28;20209;-51
2022/04/06 10:16:44;;;;;;;3.43;2.03;;;11.20;99.90;;;;;;5054326;28;20691;-51
2022/04/06 10:19:15;;;;;;;5.03;2.03;;;11.30;99.90;;;;;;5053985;28;20295;-51
2022/04/06 10:21:53;;;;;;;5.07;2.10;;;11.40;99.90;;;;;;5053849;28;20233;-51
2022/04/06 10:24:34;;;;;;;5.13;1.90;;;11.50;99.90;;;;;;5053806;28;20245;-51
2022/04/06 10:27:10;;;;;;;4.67;2.37;;;11.60;99.90;;;;;;5053986;28;20190;-51
2022/04/06 10:30:08;;;;;;;7.53;2.33;;;11.70;99.90;;;;;;5054058;28;20251;-51
2022/04/06 10:32:39;;;;;;;8.23;2.50;;;11.70;99.90;;;;;;5053308;28;20267;-51
2022/04/06 10:35:21;;;;;;;7.23;2.43;;;11.70;99.90;;;;;;5053509;28;20251;-51
2022/04/06 10:37:52;;;;;;;6.63;2.40;;;11.90;99.90;;;;;;5053945;28;20193;-51
2022/04/06 10:40:21;;;;;;;4.53;2.20;;;11.70;99.90;;;;;;5045394;28;20234;-54
2022/04/06 10:42:49;;;;;;;3.20;1.93;;;11.70;99.90;;;;;;5053093;28;20205;-51
2022/04/06 10:45:36;;;;;;;5.20;2.10;;;11.80;99.90;;;;;;5052844;28;20239;-52
2022/04/06 10:48:16;;;;;;;4.53;2.20;;;11.90;99.90;;;;;;5053343;28;20216;-51
2022/04/06 10:50:46;;;;;;;6.77;2.37;;;11.90;99.90;;;;;;5050043;28;20237;-51
2022/04/06 10:53:28;;;;;;;5.47;2.10;;;12.00;99.90;;;;;;5032446;28;20631;-51
2022/04/06 10:55:57;;;;;;;4.43;2.10;;;12.00;99.90;;;;;;5032264;28;20214;-51
2022/04/06 10:58:26;;;;;;;6.90;2.20;;;12.00;99.90;;;;;;5052994;28;20197;-51
2022/04/06 11:01:17;;;;;;;5.93;2.27;;;12.10;99.90;;;;;;5051904;28;20257;-52
2022/04/06 11:03:56;;;;;;;10.73;6.77;;;12.20;99.90;;;;;;5051795;28;20209;-51
2022/04/06 11:06:56;;;;;;;6.67;3.23;;;12.20;99.90;;;;;;5051297;28;20697;-51
2022/04/06 11:12:14;;;;;;;6.03;2.17;;;12.20;99.90;;;;;;5052416;28;20252;-51
2022/04/06 11:14:44;;;;;;;3.93;1.90;;;12.20;99.90;;;;;;5052684;28;20220;-51
2022/04/06 11:17:42;;;;;;;7.50;2.27;;;12.30;99.90;;;;;;5053051;28;20206;-51
2022/04/06 11:20:15;;;;;;;3.73;2.17;;;12.40;99.90;;;;;;5052573;28;20324;-51
2022/04/06 11:22:45;;;;;;;4.43;1.83;;;12.50;99.90;;;;;;5051417;28;20675;-51
2022/04/06 11:25:17;;;;;;;4.70;2.20;;;12.50;99.90;;;;;;5053270;28;20206;-51
2022/04/06 11:27:47;;;;;;;3.97;2.30;;;12.40;99.90;;;;;;5052734;28;20193;-51
2022/04/06 11:30:16;;;;;;;4.53;2.03;;;12.40;99.90;;;;;;5052030;28;20226;-52
2022/04/06 11:32:52;;;;;;;3.93;2.23;;;12.40;99.90;;;;;;5040467;28;20222;-51
2022/04/06 11:35:22;;;;;;;6.70;2.40;;;12.60;99.90;;;;;;5032678;28;20220;-51
2022/04/06 11:37:55;;;;;;;4.50;2.40;;;12.60;99.90;;;;;;5032761;28;20186;-52
2022/04/06 11:40:25;;;;;;;4.73;2.13;;;12.70;99.90;;;;;;5038562;28;20225;-52
2022/04/06 11:42:55;;;;;;;3.70;2.10;;;12.60;99.90;;;;;;5052338;28;20205;-51
2022/04/06 11:45:25;;;;;;;4.83;2.10;;;12.50;99.90;;;;;;5052670;28;20247;-51
2022/04/06 11:47:54;;;;;;;6.57;2.30;;;12.60;99.90;;;;;;5052119;28;20667;-51
2022/04/06 11:50:29;;;;;;;6.00;2.20;;;12.50;99.90;;;;;;5051549;28;20217;-51
2022/04/06 11:53:00;;;;;;;5.40;2.20;;;12.50;99.90;;;;;;5051272;28;20193;-51
2022/04/06 11:55:47;;;;;;;5.37;2.20;;;12.40;99.90;;;;;;5052422;28;20201;-51
2022/04/06 11:58:30;;;;;;;6.67;2.40;;;12.30;99.90;;;;;;5050929;28;20201;-52
2022/04/06 12:00:59;;;;;;;7.63;2.90;;;12.20;99.90;;;;;;5037512;28;20233;-51
2022/04/06 12:03:31;;;;;;;6.23;2.67;;;12.20;99.90;;;;;;5051520;28;20623;-51
2022/04/06 12:06:02;;;;;;;5.70;2.50;;;12.40;99.90;;;;;;5041807;28;20212;-51
2022/04/06 12:08:31;;;;;;;6.37;3.40;;;12.40;99.90;;;;;;5035713;28;20244;-51
2022/04/06 12:11:00;;;;;;;3.90;2.40;;;12.40;99.90;;;;;;5051806;28;20249;-51
2022/04/06 12:13:30;;;;;;;3.30;2.40;;;12.40;99.90;;;;;;5048256;28;20701;-52
2022/04/06 12:16:00;;;;;;;6.07;2.60;;;12.50;99.90;;;;;;5051823;28;20686;-52
2022/04/06 12:18:29;;;;;;;5.53;2.77;;;12.60;99.90;;;;;;5051334;28;20209;-52
2022/04/06 12:20:57;;;;;;;3.30;2.50;;;12.60;99.90;;;;;;5042705;28;20284;-52
2022/04/06 12:23:27;;;;;;;4.47;2.40;;;12.60;99.90;;;;;;5030247;28;20202;-52
2022/04/06 12:25:58;;;;;;;4.73;2.70;;;12.70;99.90;;;;;;5031497;28;20214;-52
2022/04/06 12:28:28;;;;;;;3.23;2.07;;;12.90;99.90;;;;;;5030532;28;20206;-52
2022/04/06 12:30:58;;;;;;;6.60;2.53;;;13.00;99.90;;;;;;5049828;28;20722;-52
2022/04/06 12:33:38;;;;;;;6.10;2.40;;;13.10;99.90;;;;;;5050407;28;20191;-52
2022/04/06 12:36:08;;;;;;;5.13;2.63;;;13.20;99.90;;;;;;5050625;28;20744;-52
2022/04/06 12:38:39;;;;;;;4.77;2.10;;;13.20;99.90;;;;;;5051118;28;20216;-51
2022/04/06 12:41:08;;;;;;;3.63;2.30;;;13.20;99.90;;;;;;5050963;28;20237;-51
2022/04/06 12:43:56;;;;;;;3.33;2.30;;;13.50;99.90;;;;;;5050155;28;20296;-52
2022/04/06 12:46:42;;;;;;;3.70;2.07;;;13.70;99.90;;;;;;5050566;28;20553;-52
2022/04/06 12:49:25;;;;;;;4.03;2.30;;;13.90;99.90;;;;;;5030945;28;20202;-52
2022/04/06 12:52:15;;;;;;;7.17;2.60;;;14.00;99.90;;;;;;5030247;28;20238;-52
2022/04/06 12:54:46;;;;;;;6.57;2.40;;;14.00;99.90;;;;;;5030844;28;20278;-53
2022/04/06 12:57:17;;;;;;;5.00;2.33;;;13.80;99.90;;;;;;5029769;28;20210;-52
2022/04/06 12:59:54;;;;;;;3.93;2.40;;;13.80;99.90;;;;;;5040142;28;20217;-52
2022/04/06 13:02:25;;;;;;;4.03;2.20;;;13.90;99.90;;;;;;5070609;28;20208;-52
2022/04/06 13:04:55;;;;;;;6.90;2.40;;;14.00;99.90;;;;;;5071527;28;20185;-52
2022/04/06 13:07:23;;;;;;;3.87;2.03;;;14.00;99.90;;;;;;5066252;28;20214;-52
2022/04/06 13:10:09;;;;;;;4.37;2.03;;;13.90;99.90;;;;;;5047742;28;20221;-52
2022/04/06 13:12:39;;;;;;;6.00;2.63;;;13.90;99.90;;;;;;5030646;28;20664;-52
2022/04/06 13:15:09;;;;;;;3.70;2.40;;;13.80;99.90;;;;;;5030111;28;20260;-52